createdAt,value
2024-04-14T00:01:22.647Z,0
2024-04-14T00:03:48.745Z,0
2024-04-14T00:06:14.857Z,0
2024-04-14T00:08:40.950Z,0
2024-04-14T00:11:07.068Z,0
2024-04-14T00:13:33.110Z,0
2024-04-14T00:15:59.206Z,0
2024-04-14T00:18:25.337Z,0
2024-04-14T00:20:51.427Z,0
2024-04-14T00:23:17.491Z,0
2024-04-14T00:25:43.612Z,0
2024-04-14T00:28:09.678Z,0
2024-04-14T00:30:35.793Z,0
2024-04-14T00:33:01.866Z,0
2024-04-14T00:35:28.019Z,0
2024-04-14T00:37:54.083Z,0
2024-04-14T00:40:20.144Z,0
2024-04-14T00:42:45.262Z,0
2024-04-14T00:45:11.355Z,0
2024-04-14T00:47:37.439Z,0
2024-04-14T00:50:03.547Z,0
2024-04-14T00:52:29.646Z,0
2024-04-14T00:54:55.725Z,0
2024-04-14T00:57:21.857Z,0
2024-04-14T00:59:47.930Z,0
2024-04-14T01:02:14.028Z,0
2024-04-14T01:04:40.126Z,0
2024-04-14T01:07:06.209Z,0
2024-04-14T01:09:32.305Z,0
2024-04-14T01:11:58.396Z,0
2024-04-14T01:14:23.493Z,0
2024-04-14T01:16:49.592Z,0
2024-04-14T01:19:15.713Z,0
2024-04-14T01:21:41.782Z,0
2024-04-14T01:24:07.882Z,0
2024-04-14T01:26:33.986Z,0
2024-04-14T01:29:00.075Z,0
2024-04-14T01:31:26.185Z,0
2024-04-14T01:33:52.280Z,0
2024-04-14T01:36:18.371Z,0
2024-04-14T01:38:44.471Z,0
2024-04-14T01:41:10.549Z,0
2024-04-14T01:43:36.624Z,0
2024-04-14T01:46:01.772Z,0
2024-04-14T01:48:27.848Z,0
2024-04-14T01:50:54.042Z,0
2024-04-14T01:53:20.043Z,0
2024-04-14T01:55:46.139Z,0
2024-04-14T01:58:12.231Z,0
2024-04-14T02:00:38.314Z,0
2024-04-14T02:03:04.408Z,0
2024-04-14T02:05:30.538Z,0
2024-04-14T02:07:56.600Z,0
2024-04-14T02:10:22.702Z,0
2024-04-14T02:12:48.815Z,0
2024-04-14T02:15:14.880Z,0
2024-04-14T02:17:40.000Z,0
2024-04-14T02:20:06.096Z,0
2024-04-14T02:22:32.184Z,0
2024-04-14T02:24:58.281Z,0
2024-04-14T02:27:24.402Z,0
2024-04-14T02:29:50.476Z,0
2024-04-14T02:32:16.570Z,0
2024-04-14T02:34:42.661Z,0
2024-04-14T02:37:08.764Z,0
2024-04-14T02:39:34.859Z,0
2024-04-14T02:42:00.948Z,0
2024-04-14T02:44:27.061Z,0
2024-04-14T02:46:53.221Z,0
2024-04-14T02:49:18.240Z,0
2024-04-14T02:51:44.359Z,0
2024-04-14T02:54:10.457Z,0
2024-04-14T02:56:36.537Z,0
2024-04-14T02:59:02.647Z,0
2024-04-14T03:01:28.737Z,0
2024-04-14T03:03:54.810Z,0
2024-04-14T03:06:20.939Z,0
2024-04-14T03:08:47.009Z,0
2024-04-14T03:11:13.114Z,0
2024-04-14T03:13:39.200Z,0
2024-04-14T03:16:05.305Z,0
2024-04-14T03:18:31.391Z,0
2024-04-14T03:20:56.499Z,0
2024-04-14T03:23:22.596Z,0
2024-04-14T03:25:48.696Z,0
2024-04-14T03:28:14.805Z,0
2024-04-14T03:30:40.898Z,0
2024-04-14T03:33:06.992Z,0
2024-04-14T03:35:33.081Z,0
2024-04-14T03:37:59.181Z,0
2024-04-14T03:40:25.257Z,0
2024-04-14T03:42:51.367Z,0
2024-04-14T03:45:17.452Z,0
2024-04-14T03:47:43.559Z,0
2024-04-14T03:50:09.667Z,0
2024-04-14T03:52:34.767Z,0
2024-04-14T03:55:00.851Z,0
2024-04-14T03:57:26.953Z,0
2024-04-14T03:59:53.054Z,0
2024-04-14T04:02:19.132Z,0
2024-04-14T04:04:45.244Z,0
2024-04-14T04:07:11.316Z,0
2024-04-14T04:09:37.413Z,0
2024-04-14T04:12:03.539Z,0
2024-04-14T04:14:29.607Z,0
2024-04-14T04:16:55.717Z,0
2024-04-14T04:19:21.809Z,0
2024-04-14T04:21:47.892Z,0
2024-04-14T04:24:13.001Z,0
2024-04-14T04:26:38.221Z,0
2024-04-14T04:29:04.225Z,5
2024-04-14T04:31:30.322Z,5
2024-04-14T04:33:56.413Z,5
2024-04-14T04:36:22.532Z,11
2024-04-14T04:38:48.593Z,11
2024-04-14T04:41:14.690Z,16
2024-04-14T04:43:40.815Z,22
2024-04-14T04:46:06.889Z,28
2024-04-14T04:48:32.994Z,33
2024-04-14T04:50:59.096Z,39
2024-04-14T04:53:25.169Z,45
2024-04-14T04:55:51.271Z,50
2024-04-14T04:58:16.390Z,56
2024-04-14T05:00:42.488Z,61
2024-04-14T05:03:08.564Z,67
2024-04-14T05:05:34.670Z,73
2024-04-14T05:08:00.761Z,78
2024-04-14T05:10:26.870Z,84
2024-04-14T05:12:52.939Z,90
2024-04-14T05:15:19.038Z,95
2024-04-14T05:17:45.142Z,95
2024-04-14T05:20:11.229Z,106
2024-04-14T05:22:37.354Z,112
2024-04-14T05:25:03.420Z,123
2024-04-14T05:27:29.518Z,135
2024-04-14T05:29:54.665Z,146
2024-04-14T05:32:20.737Z,157
2024-04-14T05:34:46.815Z,163
2024-04-14T05:37:12.922Z,168
2024-04-14T05:39:39.096Z,185
2024-04-14T05:42:05.110Z,202
2024-04-14T05:44:31.203Z,213
2024-04-14T05:46:57.289Z,225
2024-04-14T05:49:23.401Z,225
2024-04-14T05:51:49.472Z,230
2024-04-14T05:54:15.588Z,236
2024-04-14T05:56:41.682Z,236
2024-04-14T05:59:07.784Z,241
2024-04-14T06:01:32.880Z,247
2024-04-14T06:03:58.982Z,247
2024-04-14T06:06:25.080Z,236
2024-04-14T06:08:51.166Z,236
2024-04-14T06:11:17.277Z,241
2024-04-14T06:13:43.352Z,253
2024-04-14T06:16:09.453Z,259
2024-04-14T06:18:35.586Z,253
2024-04-14T06:21:01.637Z,259
2024-04-14T06:23:27.737Z,253
2024-04-14T06:25:53.819Z,259
2024-04-14T06:28:19.938Z,265
2024-04-14T06:30:46.010Z,276
2024-04-14T06:33:12.098Z,276
2024-04-14T06:35:38.202Z,271
2024-04-14T06:38:04.303Z,271
2024-04-14T06:40:30.388Z,276
2024-04-14T06:42:56.492Z,287
2024-04-14T06:45:22.586Z,287
2024-04-14T06:47:48.671Z,293
2024-04-14T06:50:14.759Z,304
2024-04-14T06:52:40.858Z,316
2024-04-14T06:55:06.950Z,332
2024-04-14T06:57:32.064Z,338
2024-04-14T06:59:58.162Z,338
2024-04-14T07:02:24.258Z,344
2024-04-14T07:04:50.361Z,349
2024-04-14T07:07:16.438Z,344
2024-04-14T07:09:42.547Z,344
2024-04-14T07:12:08.646Z,332
2024-04-14T07:14:34.751Z,321
2024-04-14T07:17:00.821Z,327
2024-04-14T07:19:26.936Z,321
2024-04-14T07:21:53.009Z,332
2024-04-14T07:24:19.104Z,355
2024-04-14T07:26:45.216Z,366
2024-04-14T07:29:11.304Z,372
2024-04-14T07:31:37.397Z,377
2024-04-14T07:34:03.470Z,389
2024-04-14T07:36:29.587Z,394
2024-04-14T07:38:54.693Z,394
2024-04-14T07:41:20.785Z,400
2024-04-14T07:43:46.887Z,406
2024-04-14T07:46:12.986Z,411
2024-04-14T07:48:39.060Z,411
2024-04-14T07:51:05.157Z,406
2024-04-14T07:53:31.246Z,400
2024-04-14T07:55:57.369Z,389
2024-04-14T07:58:23.451Z,389
2024-04-14T08:00:49.566Z,406
2024-04-14T08:03:15.624Z,422
2024-04-14T08:05:41.735Z,434
2024-04-14T08:08:07.836Z,434
2024-04-14T08:10:32.921Z,451
2024-04-14T08:12:59.037Z,434
2024-04-14T08:15:25.132Z,434
2024-04-14T08:17:51.215Z,434
2024-04-14T08:20:17.320Z,451
2024-04-14T08:22:43.416Z,462
2024-04-14T08:25:09.490Z,479
2024-04-14T08:27:35.590Z,479
2024-04-14T08:30:01.760Z,467
2024-04-14T08:32:27.778Z,473
2024-04-14T08:34:53.893Z,467
2024-04-14T08:37:19.975Z,462
2024-04-14T08:39:46.073Z,439
2024-04-14T08:42:12.170Z,445
2024-04-14T08:44:38.275Z,473
2024-04-14T08:47:04.347Z,479
2024-04-14T08:49:30.430Z,490
2024-04-14T08:51:56.540Z,496
2024-04-14T08:54:22.637Z,501
2024-04-14T08:56:48.744Z,501
2024-04-14T08:59:14.830Z,496
2024-04-14T09:01:40.918Z,507
2024-04-14T09:04:07.011Z,507
2024-04-14T09:06:33.111Z,496
2024-04-14T09:08:59.194Z,496
2024-04-14T09:11:25.299Z,496
2024-04-14T09:13:51.377Z,490
2024-04-14T09:16:17.460Z,507
2024-04-14T09:18:42.577Z,507
2024-04-14T09:21:08.677Z,507
2024-04-14T09:23:34.782Z,513
2024-04-14T09:26:00.873Z,519
2024-04-14T09:28:26.961Z,507
2024-04-14T09:30:53.070Z,501
2024-04-14T09:33:19.169Z,519
2024-04-14T09:35:45.256Z,513
2024-04-14T09:38:11.349Z,501
2024-04-14T09:40:37.595Z,490
2024-04-14T09:43:03.528Z,484
2024-04-14T09:45:29.627Z,519
2024-04-14T09:47:55.715Z,536
2024-04-14T09:50:20.826Z,547
2024-04-14T09:52:46.925Z,547
2024-04-14T09:55:13.044Z,547
2024-04-14T09:57:39.148Z,553
2024-04-14T10:00:05.204Z,581
2024-04-14T10:02:31.294Z,587
2024-04-14T10:04:57.421Z,592
2024-04-14T10:07:23.498Z,581
2024-04-14T10:09:49.597Z,598
2024-04-14T10:12:15.689Z,581
2024-04-14T10:14:41.828Z,598
2024-04-14T10:17:07.891Z,626
2024-04-14T10:19:33.969Z,603
2024-04-14T10:22:00.081Z,620
2024-04-14T10:24:26.168Z,603
2024-04-14T10:26:52.259Z,603
2024-04-14T10:29:18.363Z,598
2024-04-14T10:31:43.452Z,587
2024-04-14T10:34:09.546Z,592
2024-04-14T10:36:35.653Z,598
2024-04-14T10:39:01.729Z,620
2024-04-14T10:41:27.831Z,637
2024-04-14T10:43:53.918Z,632
2024-04-14T10:46:20.017Z,643
2024-04-14T10:48:46.120Z,632
2024-04-14T10:51:12.213Z,648
2024-04-14T10:53:38.299Z,671
2024-04-14T10:56:04.393Z,693
2024-04-14T10:58:30.464Z,682
2024-04-14T11:00:56.583Z,660
2024-04-14T11:03:22.680Z,677
2024-04-14T11:05:47.772Z,682
2024-04-14T11:08:13.862Z,671
2024-04-14T11:10:39.957Z,688
2024-04-14T11:13:06.079Z,722
2024-04-14T11:15:32.153Z,727
2024-04-14T11:17:58.233Z,716
2024-04-14T11:20:24.349Z,699
2024-04-14T11:22:50.448Z,722
2024-04-14T11:25:16.537Z,738
2024-04-14T11:27:42.628Z,738
2024-04-14T11:30:08.727Z,738
2024-04-14T11:32:34.804Z,750
2024-04-14T11:35:00.914Z,761
2024-04-14T11:37:26.026Z,768
2024-04-14T11:39:52.117Z,801
2024-04-14T11:42:18.198Z,796
2024-04-14T11:44:44.292Z,813
2024-04-14T11:47:10.407Z,784
2024-04-14T11:49:36.487Z,784
2024-04-14T11:52:02.584Z,801
2024-04-14T11:54:28.685Z,818
2024-04-14T11:56:54.768Z,829
2024-04-14T11:59:20.864Z,829
2024-04-14T12:01:46.965Z,829
2024-04-14T12:04:13.062Z,835
2024-04-14T12:06:39.159Z,852
2024-04-14T12:09:04.267Z,886
2024-04-14T12:11:30.392Z,903
2024-04-14T12:13:56.468Z,931
2024-04-14T12:16:22.543Z,936
2024-04-14T12:18:48.623Z,925
2024-04-14T12:21:14.726Z,919
2024-04-14T12:23:40.843Z,936
2024-04-14T12:26:06.930Z,936
2024-04-14T12:28:33.011Z,931
2024-04-14T12:30:59.108Z,903
2024-04-14T12:33:25.204Z,936
2024-04-14T12:35:50.327Z,964
2024-04-14T12:38:16.419Z,993
2024-04-14T12:40:42.504Z,1021
2024-04-14T12:43:08.612Z,1050
2024-04-14T12:45:34.712Z,1106
2024-04-14T12:48:00.779Z,2106
2024-04-14T12:50:26.888Z,3003
2024-04-14T12:52:52.974Z,2823
2024-04-14T12:55:19.076Z,3416
2024-04-14T12:57:45.155Z,1913
2024-04-14T13:00:11.303Z,1067
2024-04-14T13:02:37.352Z,942
2024-04-14T13:05:03.500Z,919
2024-04-14T13:07:28.558Z,908
2024-04-14T13:09:54.664Z,897
2024-04-14T13:12:20.752Z,886
2024-04-14T13:14:46.841Z,914
2024-04-14T13:17:12.946Z,919
2024-04-14T13:19:39.012Z,908
2024-04-14T13:22:05.136Z,914
2024-04-14T13:24:31.269Z,914
2024-04-14T13:26:57.297Z,931
2024-04-14T13:29:23.422Z,931
2024-04-14T13:31:49.497Z,959
2024-04-14T13:34:15.618Z,998
2024-04-14T13:36:41.691Z,1021
2024-04-14T13:39:06.805Z,1061
2024-04-14T13:41:32.899Z,1044
2024-04-14T13:43:58.993Z,1106
2024-04-14T13:46:25.080Z,1174
2024-04-14T13:48:51.159Z,2399
2024-04-14T13:51:17.276Z,3184
2024-04-14T13:53:43.565Z,2551
2024-04-14T13:56:09.461Z,1981
2024-04-14T13:58:35.555Z,2805
2024-04-14T14:01:01.656Z,2529
2024-04-14T14:03:27.738Z,3325
2024-04-14T14:05:53.842Z,3235
2024-04-14T14:08:19.924Z,2981
2024-04-14T14:10:45.044Z,1835
2024-04-14T14:13:11.141Z,3014
2024-04-14T14:15:37.219Z,1523
2024-04-14T14:20:29.423Z,2738
2024-04-14T14:22:55.517Z,3065
2024-04-14T14:25:21.595Z,1541
2024-04-14T14:27:47.727Z,2179
2024-04-14T14:30:13.828Z,1422
2024-04-14T14:32:39.905Z,1332
2024-04-14T14:35:06.072Z,1383
2024-04-14T14:37:32.088Z,1704
2024-04-14T14:39:58.175Z,1671
2024-04-14T14:42:23.297Z,1693
2024-04-14T14:44:49.421Z,1925
2024-04-14T14:47:15.467Z,1552
2024-04-14T14:49:41.561Z,1310
2024-04-14T14:52:07.652Z,1947
2024-04-14T14:54:33.763Z,1326
2024-04-14T14:56:59.861Z,1202
2024-04-14T14:59:25.943Z,1252
2024-04-14T15:01:52.037Z,1789
2024-04-14T15:04:18.143Z,1529
2024-04-14T15:06:44.246Z,1360
2024-04-14T15:09:10.315Z,1281
2024-04-14T15:11:36.429Z,1129
2024-04-14T15:14:01.514Z,1202
2024-04-14T15:16:27.617Z,1117
2024-04-14T15:18:53.734Z,1140
2024-04-14T15:21:19.830Z,931
2024-04-14T15:23:45.898Z,1264
2024-04-14T15:26:11.991Z,1235
2024-04-14T15:28:38.084Z,1021
2024-04-14T15:31:04.187Z,1021
2024-04-14T15:33:30.295Z,1084
2024-04-14T15:35:56.375Z,959
2024-04-14T15:38:22.473Z,824
2024-04-14T15:40:48.571Z,813
2024-04-14T15:43:14.847Z,874
2024-04-14T15:45:40.809Z,829
2024-04-14T15:48:06.883Z,807
2024-04-14T15:50:33.266Z,880
2024-04-14T15:52:59.160Z,818
2024-04-14T15:55:25.419Z,863
2024-04-14T15:57:51.268Z,841
2024-04-14T16:00:17.662Z,903
2024-04-14T16:02:43.591Z,863
2024-04-14T16:05:09.516Z,682
2024-04-14T16:07:35.587Z,733
2024-04-14T16:10:01.699Z,693
2024-04-14T16:12:28.186Z,671
2024-04-14T16:14:53.015Z,615
2024-04-14T16:17:18.992Z,581
2024-04-14T16:19:45.278Z,547
2024-04-14T16:22:11.374Z,632
2024-04-14T16:24:37.490Z,632
2024-04-14T16:27:03.382Z,660
2024-04-14T16:29:29.509Z,626
2024-04-14T16:31:55.671Z,564
2024-04-14T16:34:22.078Z,513
2024-04-14T16:36:48.072Z,484
2024-04-14T16:39:14.165Z,519
2024-04-14T16:41:40.060Z,558
2024-04-14T16:44:06.135Z,603
2024-04-14T16:46:31.465Z,525
2024-04-14T16:48:57.488Z,417
2024-04-14T16:53:49.443Z,338
2024-04-14T16:56:15.530Z,310
2024-04-14T16:58:41.606Z,299
2024-04-14T17:01:07.721Z,304
2024-04-14T17:03:33.811Z,282
2024-04-14T17:05:59.904Z,271
2024-04-14T17:08:25.999Z,293
2024-04-14T17:10:52.080Z,282
2024-04-14T17:13:18.174Z,276
2024-04-14T17:15:44.279Z,276
2024-04-14T17:18:09.445Z,253
2024-04-14T17:20:35.486Z,219
2024-04-14T17:23:01.577Z,208
2024-04-14T17:25:27.660Z,208
2024-04-14T17:27:53.747Z,196
2024-04-14T17:30:56.054Z,185
2024-04-14T17:32:45.940Z,168
2024-04-14T17:35:12.044Z,157
2024-04-14T17:37:38.156Z,140
2024-04-14T17:40:04.239Z,135
2024-04-14T17:42:30.326Z,123
2024-04-14T17:44:56.414Z,112
2024-04-14T17:47:22.511Z,95
2024-04-14T17:49:47.628Z,84
2024-04-14T17:52:13.727Z,73
2024-04-14T17:54:39.812Z,67
2024-04-14T17:59:32.008Z,50
2024-04-14T18:01:58.088Z,39
2024-04-14T18:04:24.192Z,33
2024-04-14T18:06:50.279Z,22
2024-04-14T18:09:16.386Z,16
2024-04-14T18:11:42.482Z,11
2024-04-14T18:14:08.572Z,11
2024-04-14T18:16:34.668Z,5
2024-04-14T18:19:00.744Z,5
2024-04-14T18:21:26.850Z,5
2024-04-14T18:23:51.973Z,0
2024-04-14T18:26:18.111Z,0
2024-04-14T18:28:44.148Z,0
2024-04-14T18:31:10.251Z,0
2024-04-14T18:33:36.326Z,0
2024-04-14T18:36:02.425Z,0
2024-04-14T18:38:28.541Z,0
2024-04-14T18:40:54.623Z,0
2024-04-14T18:43:20.730Z,0
2024-04-14T18:45:46.810Z,0
2024-04-14T18:48:12.902Z,0
2024-04-14T18:50:39.010Z,0
2024-04-14T18:53:05.090Z,0
2024-04-14T18:55:30.188Z,0
2024-04-14T18:57:56.305Z,0
2024-04-14T19:00:22.381Z,0
2024-04-14T19:02:48.482Z,0
2024-04-14T19:05:14.568Z,0
2024-04-14T19:07:40.670Z,0
2024-04-14T19:10:06.760Z,0
2024-04-14T19:12:32.853Z,0
2024-04-14T19:14:58.945Z,0
2024-04-14T19:17:25.054Z,0
2024-04-14T19:19:51.137Z,0
2024-04-14T19:22:17.226Z,0
2024-04-14T19:24:43.315Z,0
2024-04-14T19:27:08.427Z,0
2024-04-14T19:29:34.530Z,0
2024-04-14T19:32:00.617Z,0
2024-04-14T19:34:26.714Z,0
2024-04-14T19:36:52.822Z,0
2024-04-14T19:39:18.908Z,0
2024-04-14T19:41:44.996Z,0
2024-04-14T19:44:11.085Z,0
2024-04-14T19:46:37.186Z,0
2024-04-14T19:49:03.298Z,0
2024-04-14T19:51:29.367Z,0
2024-04-14T19:53:55.461Z,0
2024-04-14T19:56:21.576Z,0
2024-04-14T19:58:46.692Z,0
2024-04-14T20:01:12.783Z,0
2024-04-14T20:03:38.858Z,0
2024-04-14T20:06:04.960Z,0
2024-04-14T20:08:31.060Z,0
2024-04-14T20:10:57.164Z,0
2024-04-14T20:13:23.246Z,0
2024-04-14T20:15:49.349Z,0
2024-04-14T20:18:15.444Z,0
2024-04-14T20:20:41.526Z,0
2024-04-14T20:23:07.624Z,0
2024-04-14T20:25:33.708Z,0
2024-04-14T20:27:59.798Z,0
2024-04-14T20:30:24.930Z,0
2024-04-14T20:32:51.031Z,0
2024-04-14T20:35:17.123Z,0
2024-04-14T20:37:43.219Z,0
2024-04-14T20:40:09.299Z,0
2024-04-14T20:42:35.393Z,0
2024-04-14T20:45:00.496Z,0
2024-04-14T20:47:26.602Z,0
2024-04-14T20:49:52.674Z,0
2024-04-14T20:52:18.796Z,0
2024-04-14T20:54:44.882Z,0
2024-04-14T20:57:10.992Z,0
2024-04-14T20:59:37.069Z,0
2024-04-14T21:02:03.161Z,0
2024-04-14T21:04:29.275Z,0
2024-04-14T21:06:55.366Z,0
2024-04-14T21:09:21.434Z,0
2024-04-14T21:11:47.556Z,0
2024-04-14T21:14:13.654Z,0
2024-04-14T21:16:38.753Z,0
2024-04-14T21:19:04.844Z,0
2024-04-14T21:21:30.945Z,0
2024-04-14T21:23:57.021Z,0
2024-04-14T21:26:23.142Z,0
2024-04-14T21:28:49.245Z,0
2024-04-14T21:31:15.322Z,0
2024-04-14T21:33:41.427Z,0
2024-04-14T21:36:07.512Z,0
2024-04-14T21:38:33.600Z,0
2024-04-14T21:40:59.694Z,0
2024-04-14T21:43:25.811Z,0
2024-04-14T21:45:51.910Z,0
2024-04-14T21:48:16.991Z,0
2024-04-14T21:50:43.087Z,0
2024-04-14T21:53:09.180Z,0
2024-04-14T21:55:35.288Z,0
2024-04-14T21:58:01.380Z,0
2024-04-14T22:00:27.473Z,0
2024-04-14T22:02:53.578Z,0
2024-04-14T22:05:19.672Z,0
2024-04-14T22:07:45.755Z,0
2024-04-14T22:10:11.860Z,0
2024-04-14T22:12:37.947Z,0
2024-04-14T22:15:04.036Z,0
2024-04-14T22:17:30.140Z,0
2024-04-14T22:19:55.239Z,0
2024-04-14T22:22:21.335Z,0
2024-04-14T22:24:47.428Z,0
2024-04-14T22:27:13.527Z,0
2024-04-14T22:29:39.626Z,0
2024-04-14T22:32:05.728Z,0
2024-04-14T22:34:31.831Z,0
2024-04-14T22:36:57.914Z,0
2024-04-14T22:39:24.016Z,0
2024-04-14T22:41:50.092Z,0
2024-04-14T22:44:16.195Z,0
2024-04-14T22:46:42.285Z,0
2024-04-14T22:49:08.367Z,0
2024-04-14T22:51:33.493Z,0
2024-04-14T22:53:59.570Z,0
2024-04-14T22:56:25.675Z,0
2024-04-14T22:58:51.763Z,0
2024-04-14T23:01:17.875Z,0
2024-04-14T23:03:43.950Z,0
2024-04-14T23:06:10.066Z,0
2024-04-14T23:08:36.143Z,0
2024-04-14T23:11:02.239Z,0
2024-04-14T23:13:28.323Z,0
2024-04-14T23:15:54.432Z,0
2024-04-14T23:18:20.525Z,0
2024-04-14T23:20:46.638Z,0
2024-04-14T23:23:11.737Z,0
2024-04-14T23:25:37.824Z,0
2024-04-14T23:28:03.927Z,0
2024-04-14T23:30:30.006Z,0
2024-04-14T23:32:56.103Z,0
2024-04-14T23:35:22.203Z,0
2024-04-14T23:37:48.290Z,0
2024-04-14T23:40:14.378Z,0
2024-04-14T23:42:40.510Z,0
2024-04-14T23:45:06.584Z,0
2024-04-14T23:47:32.676Z,0
2024-04-14T23:49:58.764Z,0
2024-04-14T23:52:24.880Z,0
2024-04-14T23:54:50.003Z,0
2024-04-14T23:57:16.083Z,0
2024-04-14T23:59:42.189Z,0
